Time,TemperatureF,DewpointF,PressureIn,WindDirection,WindDirectionDegrees,WindSpeedMPH,WindSpeedGustMPH,Humidity,HourlyPrecipIn,Conditions,Clouds,dailyrainin,SoftwareType,DateUTC
2013-03-09 00:02:00,47.1,24.6,29.29,South,191,7.8,12.5,41,0.00,,---,0.00,VWS V14.01,2013-03-09 08:02:00,
2013-03-09 00:07:00,47.1,24.6,29.29,SW,222,11.0,13.4,41,0.00,,---,0.00,VWS V14.01,2013-03-09 08:07:00,
2013-03-09 00:12:00,47.1,24.6,29.29,SW,214,9.2,12.5,41,0.00,,---,0.00,VWS V14.01,2013-03-09 08:12:00,
2013-03-09 00:17:00,47.3,24.2,29.32,South,177,7.4,9.2,40,0.00,,---,0.00,VWS V14.01,2013-03-09 08:17:00,
2013-03-09 00:22:00,47.3,24.2,29.32,SSW,208,10.5,10.5,40,0.00,,---,0.00,VWS V14.01,2013-03-09 08:22:00,
2013-03-09 00:27:00,47.3,24.2,29.32,SSW,209,9.6,11.0,40,0.00,,---,0.00,VWS V14.01,2013-03-09 08:27:00,
2013-03-09 00:32:00,47.3,24.2,29.29,SSW,211,8.7,11.6,40,0.00,,---,0.00,VWS V14.01,2013-03-09 08:32:00,
2013-03-09 00:37:00,47.3,24.8,29.29,SSW,203,11.0,11.2,41,0.00,,---,0.00,VWS V14.01,2013-03-09 08:37:00,
2013-03-09 00:42:00,47.3,24.8,29.29,SW,214,11.6,12.1,41,0.00,,---,0.00,VWS V14.01,2013-03-09 08:42:00,
2013-03-09 00:47:00,47.1,24.6,29.32,SW,221,14.3,14.3,41,0.00,,---,0.00,VWS V14.01,2013-03-09 08:47:00,
2013-03-09 00:52:00,47.1,24.6,29.32,SW,225,10.1,12.1,41,0.00,,---,0.00,VWS V14.01,2013-03-09 08:52:00,
2013-03-09 00:57:00,47.3,24.2,29.32,SSW,208,12.5,15.9,40,0.00,,---,0.00,VWS V14.01,2013-03-09 08:57:00,
2013-03-09 01:02:00,47.3,24.2,29.32,SW,222,9.6,10.5,40,0.00,,---,0.00,VWS V14.01,2013-03-09 09:02:00,
2013-03-09 01:07:00,47.1,24.1,29.32,SW,220,12.1,13.4,40,0.00,,---,0.00,VWS V14.01,2013-03-09 09:07:00,
2013-03-09 01:12:00,47.3,24.2,29.32,SW,229,9.2,10.1,40,0.00,,---,0.00,VWS V14.01,2013-03-09 09:12:00,
2013-03-09 01:17:00,47.3,24.2,29.32,SSW,209,7.8,11.6,40,0.00,,---,0.00,VWS V14.01,2013-03-09 09:17:00,
2013-03-09 01:22:00,47.3,23.6,29.32,SSW,208,11.2,12.1,39,0.00,,---,0.00,VWS V14.01,2013-03-09 09:22:00,
2013-03-09 01:27:00,47.3,23.6,29.32,SW,224,10.1,10.1,39,0.00,,---,0.00,VWS V14.01,2013-03-09 09:27:00,
2013-03-09 01:32:00,47.3,23.6,29.32,SSW,203,8.3,11.0,39,0.00,,---,0.00,VWS V14.01,2013-03-09 09:32:00,
2013-03-09 01:37:00,47.3,23.0,29.32,SW,224,8.7,10.5,38,0.00,,---,0.00,VWS V14.01,2013-03-09 09:37:00,
2013-03-09 01:42:00,47.3,23.6,29.32,SW,225,9.2,11.6,39,0.00,,---,0.00,VWS V14.01,2013-03-09 09:42:00,
2013-03-09 01:47:00,47.3,23.0,29.32,WSW,237,8.3,8.7,38,0.00,,---,0.00,VWS V14.01,2013-03-09 09:47:00,
2013-03-09 01:52:00,47.1,22.8,29.32,SW,223,8.3,8.3,38,0.00,,---,0.00,VWS V14.01,2013-03-09 09:52:00,
2013-03-09 01:57:00,47.1,22.8,29.32,SSW,210,7.8,12.5,38,0.00,,---,0.00,VWS V14.01,2013-03-09 09:57:00,
2013-03-09 02:02:00,46.9,22.7,29.32,SW,235,10.5,12.1,38,0.00,,---,0.00,VWS V14.01,2013-03-09 10:02:00,
2013-03-09 02:07:00,46.6,23.0,29.32,SW,217,11.0,11.6,39,0.00,,---,0.00,VWS V14.01,2013-03-09 10:07:00,
2013-03-09 02:12:00,46.6,22.4,29.32,SW,220,8.3,9.6,38,0.00,,---,0.00,VWS V14.01,2013-03-09 10:12:00,
2013-03-09 02:17:00,46.6,23.0,29.32,SW,232,8.7,11.0,39,0.00,,---,0.00,VWS V14.01,2013-03-09 10:17:00,
2013-03-09 02:22:00,46.6,23.0,29.32,SW,218,8.3,9.2,39,0.00,,---,0.00,VWS V14.01,2013-03-09 10:22:00,
2013-03-09 02:27:00,46.8,23.1,29.32,SW,228,7.4,9.6,39,0.00,,---,0.00,VWS V14.01,2013-03-09 10:27:00,
2013-03-09 02:32:00,46.8,23.1,29.32,SSW,211,9.2,9.6,39,0.00,,---,0.00,VWS V14.01,2013-03-09 10:32:00,
2013-03-09 02:37:00,46.8,23.1,29.32,WSW,239,11.0,11.0,39,0.00,,---,0.00,VWS V14.01,2013-03-09 10:37:00,
2013-03-09 02:42:00,46.6,22.4,29.32,SW,220,10.1,10.1,38,0.00,,---,0.00,VWS V14.01,2013-03-09 10:42:00,
2013-03-09 02:47:00,46.6,23.0,29.32,SSW,213,7.8,11.2,39,0.00,,---,0.00,VWS V14.01,2013-03-09 10:47:00,
2013-03-09 02:52:00,46.2,22.6,29.32,SW,218,6.9,8.7,39,0.00,,---,0.00,VWS V14.01,2013-03-09 10:52:00,
2013-03-09 02:57:00,46.0,22.5,29.32,SW,228,6.9,9.2,39,0.00,,---,0.00,VWS V14.01,2013-03-09 10:57:00,
2013-03-09 03:02:00,45.5,22.0,29.32,SW,226,5.4,6.3,39,0.00,,---,0.00,VWS V14.01,2013-03-09 11:02:00,
2013-03-09 03:07:00,45.5,22.6,29.32,SW,226,6.7,6.9,40,0.00,,---,0.00,VWS V14.01,2013-03-09 11:07:00,
2013-03-09 03:12:00,45.5,22.6,29.32,SW,222,6.9,7.8,40,0.00,,---,0.00,VWS V14.01,2013-03-09 11:12:00,
2013-03-09 03:17:00,45.1,22.9,29.32,SW,227,6.7,6.9,41,0.00,,---,0.00,VWS V14.01,2013-03-09 11:17:00,
2013-03-09 03:22:00,45.0,22.7,29.32,SW,223,5.8,6.9,41,0.00,,---,0.00,VWS V14.01,2013-03-09 11:22:00,
2013-03-09 03:27:00,45.1,22.9,29.32,South,186,6.7,7.4,41,0.00,,---,0.00,VWS V14.01,2013-03-09 11:27:00,
2013-03-09 03:32:00,45.1,22.3,29.32,SSW,213,3.6,4.5,40,0.00,,---,0.00,VWS V14.01,2013-03-09 11:32:00,
2013-03-09 03:37:00,44.8,22.5,29.32,SSW,203,2.7,4.5,41,0.00,,---,0.00,VWS V14.01,2013-03-09 11:37:00,
2013-03-09 03:42:00,44.6,22.4,29.32,South,188,3.1,3.6,41,0.00,,---,0.00,VWS V14.01,2013-03-09 11:42:00,
2013-03-09 03:47:00,44.4,22.8,29.35,South,188,0.0,4.0,42,0.00,,---,0.00,VWS V14.01,2013-03-09 11:47:00,
2013-03-09 03:52:00,44.2,23.2,29.35,South,188,4.0,4.0,43,0.00,,---,0.00,VWS V14.01,2013-03-09 11:52:00,
2013-03-09 03:57:00,42.8,20.8,29.35,SSE,150,4.0,4.0,41,0.00,,---,0.00,VWS V14.01,2013-03-09 11:57:00,
2013-03-09 04:02:00,42.4,22.6,29.35,East,101,3.1,4.0,45,0.00,,---,0.00,VWS V14.01,2013-03-09 12:02:00,
2013-03-09 04:07:00,42.6,24.3,29.35,East,101,0.0,0.0,48,0.00,,---,0.00,VWS V14.01,2013-03-09 12:07:00,
2013-03-09 04:12:00,42.3,24.0,29.35,East,101,0.0,0.0,48,0.00,,---,0.00,VWS V14.01,2013-03-09 12:12:00,
2013-03-09 04:17:00,42.3,24.5,29.35,East,101,3.6,3.6,49,0.00,,---,0.00,VWS V14.01,2013-03-09 12:17:00,
2013-03-09 04:22:00,42.1,24.8,29.35,ESE,103,4.5,4.5,50,0.00,,---,0.00,VWS V14.01,2013-03-09 12:22:00,
2013-03-09 04:27:00,41.5,23.8,29.35,ESE,121,3.1,4.0,49,0.00,,---,0.00,VWS V14.01,2013-03-09 12:27:00,
2013-03-09 04:32:00,41.4,24.1,29.38,ESE,114,4.0,4.0,50,0.00,,---,0.00,VWS V14.01,2013-03-09 12:32:00,
2013-03-09 04:37:00,41.0,23.8,29.38,ESE,113,3.6,4.0,50,0.00,,---,0.00,VWS V14.01,2013-03-09 12:37:00,
2013-03-09 04:42:00,41.0,24.3,29.38,ESE,113,0.0,3.1,51,0.00,,---,0.00,VWS V14.01,2013-03-09 12:42:00,
2013-03-09 04:47:00,41.2,24.9,29.38,ESE,113,3.1,4.0,52,0.00,,---,0.00,VWS V14.01,2013-03-09 12:47:00,
2013-03-09 04:52:00,41.0,24.3,29.38,ESE,113,4.0,4.0,51,0.00,,---,0.00,VWS V14.01,2013-03-09 12:52:00,
2013-03-09 04:57:00,40.8,24.1,29.38,ESE,122,3.6,4.9,51,0.00,,---,0.00,VWS V14.01,2013-03-09 12:57:00,
2013-03-09 05:02:00,40.3,23.1,29.41,ESE,123,0.0,0.0,50,0.00,,---,0.00,VWS V14.01,2013-03-09 13:02:00,
2013-03-09 05:07:00,39.4,22.3,29.41,ESE,123,0.0,0.0,50,0.00,,---,0.00,VWS V14.01,2013-03-09 13:07:00,
2013-03-09 05:12:00,39.2,22.1,29.41,ESE,123,0.0,0.0,50,0.00,,---,0.00,VWS V14.01,2013-03-09 13:12:00,
2013-03-09 05:17:00,39.6,23.9,29.41,SE,124,0.0,0.0,53,0.00,,---,0.00,VWS V14.01,2013-03-09 13:17:00,
2013-03-09 05:22:00,39.4,23.2,29.41,SE,124,0.0,0.0,52,0.00,,---,0.00,VWS V14.01,2013-03-09 13:22:00,
2013-03-09 05:27:00,39.7,24.5,29.41,SE,124,0.0,0.0,54,0.00,,---,0.00,VWS V14.01,2013-03-09 13:27:00,
2013-03-09 05:32:00,39.2,24.0,29.41,SE,124,0.0,0.0,54,0.00,,---,0.00,VWS V14.01,2013-03-09 13:32:00,
2013-03-09 05:37:00,39.7,24.9,29.41,SE,124,0.0,0.0,55,0.00,,---,0.00,VWS V14.01,2013-03-09 13:37:00,
2013-03-09 05:43:00,39.6,25.2,29.41,SE,124,0.0,0.0,56,0.00,,---,0.00,VWS V14.01,2013-03-09 13:43:00,
2013-03-09 05:49:00,39.2,24.8,29.41,SE,124,0.0,0.0,56,0.00,,---,0.00,VWS V14.01,2013-03-09 13:49:00,
2013-03-09 05:54:00,38.8,24.1,29.41,SE,124,0.0,0.0,55,0.00,,---,0.00,VWS V14.01,2013-03-09 13:54:00,
2013-03-09 06:00:00,38.8,24.1,29.41,SE,124,0.0,0.0,55,0.00,,---,0.00,VWS V14.01,2013-03-09 14:00:00,
2013-03-09 06:05:00,38.8,24.1,29.44,SE,124,0.0,0.0,55,0.00,,---,0.00,VWS V14.01,2013-03-09 14:05:00,
2013-03-09 06:10:00,38.1,23.4,29.44,SE,124,0.0,0.0,55,0.00,,---,0.00,VWS V14.01,2013-03-09 14:10:00,
2013-03-09 06:15:00,37.6,22.5,29.44,SE,124,0.0,0.0,54,0.00,,---,0.00,VWS V14.01,2013-03-09 14:15:00,
2013-03-09 06:20:00,37.8,23.5,29.44,SE,124,0.0,0.0,56,0.00,,---,0.00,VWS V14.01,2013-03-09 14:20:00,
2013-03-09 06:25:00,39.2,26.9,29.44,SE,125,3.1,3.6,61,0.00,,---,0.00,VWS V14.01,2013-03-09 14:25:00,
2013-03-09 06:30:00,39.4,27.9,29.44,SE,125,0.0,0.0,63,0.00,,---,0.00,VWS V14.01,2013-03-09 14:30:00,
2013-03-09 06:35:00,39.2,27.3,29.44,SE,125,3.1,3.6,62,0.00,,---,0.00,VWS V14.01,2013-03-09 14:35:00,
2013-03-09 06:40:00,39.7,28.2,29.44,SE,125,2.7,3.1,63,0.00,,---,0.00,VWS V14.01,2013-03-09 14:40:00,
2013-03-09 06:45:00,40.1,28.5,29.44,SE,125,3.1,3.1,63,0.00,,---,0.00,VWS V14.01,2013-03-09 14:45:00,
2013-03-09 06:50:00,40.1,27.8,29.44,SE,125,2.7,2.7,61,0.00,,---,0.00,VWS V14.01,2013-03-09 14:50:00,
2013-03-09 06:56:00,41.2,28.8,29.44,SE,125,0.0,0.0,61,0.00,,---,0.00,VWS V14.01,2013-03-09 14:56:00,
2013-03-09 07:01:00,40.6,25.3,29.44,ESE,102,3.6,4.9,54,0.00,,---,0.00,VWS V14.01,2013-03-09 15:01:00,
2013-03-09 07:06:00,41.2,25.8,29.44,ESE,103,3.6,4.0,54,0.00,,---,0.00,VWS V14.01,2013-03-09 15:06:00,
2013-03-09 07:11:00,41.4,26.4,29.44,ESE,103,2.7,3.6,55,0.00,,---,0.00,VWS V14.01,2013-03-09 15:11:00,
2013-03-09 07:16:00,41.7,26.3,29.44,ESE,103,3.6,3.6,54,0.00,,---,0.00,VWS V14.01,2013-03-09 15:16:00,
2013-03-09 07:21:00,42.3,26.8,29.47,ESE,103,0.0,0.0,54,0.00,,---,0.00,VWS V14.01,2013-03-09 15:21:00,
2013-03-09 07:26:00,42.8,27.3,29.47,ESE,103,0.0,0.0,54,0.00,,---,0.00,VWS V14.01,2013-03-09 15:26:00,
2013-03-09 07:31:00,43.5,27.5,29.47,ESE,103,0.0,0.0,53,0.00,,---,0.00,VWS V14.01,2013-03-09 15:31:00,
2013-03-09 07:36:00,44.2,27.7,29.47,ESE,103,0.0,0.0,52,0.00,,---,0.00,VWS V14.01,2013-03-09 15:36:00,
2013-03-09 07:41:00,45.0,26.5,29.47,ESE,107,0.0,0.0,48,0.00,,---,0.00,VWS V14.01,2013-03-09 15:41:00,
2013-03-09 07:46:00,45.7,24.5,29.47,SSE,160,0.0,0.0,43,0.00,,---,0.00,VWS V14.01,2013-03-09 15:46:00,
2013-03-09 07:51:00,46.4,23.4,29.47,SSW,193,2.7,3.6,40,0.00,,---,0.00,VWS V14.01,2013-03-09 15:51:00,
2013-03-09 07:56:00,46.8,23.1,29.47,South,186,2.7,3.1,39,0.00,,---,0.00,VWS V14.01,2013-03-09 15:56:00,
2013-03-09 08:01:00,47.1,22.8,29.47,South,181,4.0,4.5,38,0.00,,---,0.00,VWS V14.01,2013-03-09 16:01:00,
2013-03-09 08:06:00,47.7,23.3,29.47,South,188,4.9,4.9,38,0.00,,---,0.00,VWS V14.01,2013-03-09 16:06:00,
2013-03-09 08:11:00,48.0,23.0,29.47,SSW,194,3.6,5.4,37,0.00,,---,0.00,VWS V14.01,2013-03-09 16:11:00,
2013-03-09 08:16:00,48.0,23.0,29.47,SSW,212,5.8,6.3,37,0.00,,---,0.00,VWS V14.01,2013-03-09 16:16:00,
2013-03-09 08:21:00,48.4,23.3,29.47,SW,230,5.8,5.8,37,0.00,,---,0.00,VWS V14.01,2013-03-09 16:21:00,
2013-03-09 08:26:00,48.9,23.8,29.47,SW,216,4.0,4.9,37,0.00,,---,0.00,VWS V14.01,2013-03-09 16:26:00,
2013-03-09 08:32:00,49.6,23.8,29.47,WSW,249,5.4,6.3,36,0.00,,---,0.00,VWS V14.01,2013-03-09 16:32:00,
2013-03-09 08:37:00,50.7,22.7,29.47,SW,227,2.7,2.7,33,0.00,,---,0.00,VWS V14.01,2013-03-09 16:37:00,
2013-03-09 08:42:00,51.1,23.0,29.47,WSW,253,5.4,6.9,33,0.00,,---,0.00,VWS V14.01,2013-03-09 16:42:00,
2013-03-09 08:47:00,51.1,23.0,29.47,WSW,249,6.7,6.7,33,0.00,,---,0.00,VWS V14.01,2013-03-09 16:47:00,
2013-03-09 08:52:00,52.5,21.2,29.47,SW,217,4.0,4.9,29,0.00,,---,0.00,VWS V14.01,2013-03-09 16:52:00,
2013-03-09 08:57:00,52.7,21.4,29.47,WSW,243,6.9,6.9,29,0.00,,---,0.00,VWS V14.01,2013-03-09 16:57:00,
2013-03-09 09:02:00,53.2,21.0,29.47,SSW,200,6.7,6.9,28,0.00,,---,0.00,VWS V14.01,2013-03-09 17:02:00,
2013-03-09 09:07:00,52.9,20.7,29.47,SW,220,6.3,6.7,28,0.00,,---,0.00,VWS V14.01,2013-03-09 17:07:00,
2013-03-09 09:12:00,53.1,20.8,29.47,SW,217,4.5,7.4,28,0.00,,---,0.00,VWS V14.01,2013-03-09 17:12:00,
2013-03-09 09:17:00,54.5,21.2,29.47,WSW,246,3.1,3.6,27,0.00,,---,0.00,VWS V14.01,2013-03-09 17:17:00,
2013-03-09 09:23:00,54.1,20.9,29.47,SW,228,4.9,6.9,27,0.00,,---,0.00,VWS V14.01,2013-03-09 17:23:00,
2013-03-09 09:28:00,55.0,20.8,29.47,SW,222,0.0,5.4,26,0.00,,---,0.00,VWS V14.01,2013-03-09 17:28:00,
2013-03-09 09:33:00,55.8,21.4,29.47,SSW,197,3.6,4.5,26,0.00,,---,0.00,VWS V14.01,2013-03-09 17:33:00,
2013-03-09 09:38:00,55.2,21.0,29.47,West,274,4.5,5.4,26,0.00,,---,0.00,VWS V14.01,2013-03-09 17:38:00,
2013-03-09 09:43:00,56.1,21.7,29.47,SSW,205,3.6,4.9,26,0.00,,---,0.00,VWS V14.01,2013-03-09 17:43:00,
2013-03-09 09:48:00,57.2,21.7,29.47,WSW,240,3.6,5.4,25,0.00,,---,0.00,VWS V14.01,2013-03-09 17:48:00,
2013-03-09 09:53:00,56.8,21.4,29.47,WSW,237,4.5,4.9,25,0.00,,---,0.00,VWS V14.01,2013-03-09 17:53:00,
2013-03-09 09:58:00,57.6,22.0,29.47,South,182,2.7,3.6,25,0.00,,---,0.00,VWS V14.01,2013-03-09 17:58:00,
2013-03-09 10:03:00,57.6,21.1,29.47,WNW,286,3.6,4.9,24,0.00,,---,0.00,VWS V14.01,2013-03-09 18:03:00,
2013-03-09 10:08:00,57.2,18.7,29.47,NNW,338,0.0,4.9,22,0.00,,---,0.00,VWS V14.01,2013-03-09 18:08:00,
2013-03-09 10:13:00,57.6,19.0,29.47,North,351,4.5,4.5,22,0.00,,---,0.00,VWS V14.01,2013-03-09 18:13:00,
2013-03-09 10:18:00,58.3,19.6,29.47,SW,232,0.0,4.9,22,0.00,,---,0.00,VWS V14.01,2013-03-09 18:18:00,
2013-03-09 10:23:00,59.5,20.7,29.47,WNW,296,3.6,3.6,22,0.00,,---,0.00,VWS V14.01,2013-03-09 18:23:00,
2013-03-09 10:28:00,57.2,15.3,29.47,North,4,11.2,13.9,19,0.00,,---,0.00,VWS V14.01,2013-03-09 18:28:00,
2013-03-09 10:33:00,56.8,15.0,29.47,NNE,16,10.5,15.4,19,0.00,,---,0.00,VWS V14.01,2013-03-09 18:33:00,
2013-03-09 10:38:00,56.8,15.0,29.47,NNE,17,8.7,12.1,19,0.00,,---,0.00,VWS V14.01,2013-03-09 18:38:00,
2013-03-09 10:43:00,57.2,15.3,29.47,NNW,338,12.1,15.9,19,0.00,,---,0.00,VWS V14.01,2013-03-09 18:43:00,
2013-03-09 10:48:00,57.7,15.8,29.50,North,351,10.5,11.0,19,0.00,,---,0.00,VWS V14.01,2013-03-09 18:48:00,
2013-03-09 10:53:00,57.0,15.2,29.50,North,5,7.8,13.0,19,0.00,,---,0.00,VWS V14.01,2013-03-09 18:53:00,
2013-03-09 10:58:00,57.4,15.5,29.50,North,1,12.5,12.5,19,0.00,,---,0.00,VWS V14.01,2013-03-09 18:58:00,
2013-03-09 11:03:00,57.6,15.6,29.50,NNW,338,6.9,8.7,19,0.00,,---,0.00,VWS V14.01,2013-03-09 19:03:00,
2013-03-09 11:08:00,57.7,15.8,29.50,North,351,10.1,10.1,19,0.00,,---,0.00,VWS V14.01,2013-03-09 19:08:00,
2013-03-09 11:13:00,58.1,16.1,29.50,NNW,338,7.4,11.2,19,0.00,,---,0.00,VWS V14.01,2013-03-09 19:13:00,
2013-03-09 11:18:00,58.6,16.5,29.50,North,356,13.4,13.4,19,0.00,,---,0.00,VWS V14.01,2013-03-09 19:18:00,
2013-03-09 11:23:00,58.1,16.1,29.50,North,0,11.0,15.9,19,0.00,,---,0.00,VWS V14.01,2013-03-09 19:23:00,
2013-03-09 11:28:00,59.0,16.8,29.50,North,11,10.5,11.2,19,0.00,,---,0.00,VWS V14.01,2013-03-09 19:28:00,
2013-03-09 11:33:00,59.2,17.0,29.50,North,351,14.8,16.8,19,0.00,,---,0.00,VWS V14.01,2013-03-09 19:33:00,
2013-03-09 11:38:00,58.8,16.7,29.50,NNE,19,9.2,12.5,19,0.00,,---,0.00,VWS V14.01,2013-03-09 19:38:00,
2013-03-09 11:43:00,59.4,17.1,29.50,NNE,18,13.9,14.8,19,0.00,,---,0.00,VWS V14.01,2013-03-09 19:43:00,
2013-03-09 11:48:00,59.9,17.6,29.50,North,3,9.6,13.4,19,0.00,,---,0.00,VWS V14.01,2013-03-09 19:48:00,
2013-03-09 11:53:00,60.3,17.9,29.50,North,351,11.0,12.5,19,0.00,,---,0.00,VWS V14.01,2013-03-09 19:53:00,
2013-03-09 11:58:00,59.5,17.3,29.50,North,356,9.2,13.4,19,0.00,,---,0.00,VWS V14.01,2013-03-09 19:58:00,
2013-03-09 12:03:00,60.1,17.7,29.50,NNE,20,9.6,13.9,19,0.00,,---,0.00,VWS V14.01,2013-03-09 20:03:00,
2013-03-09 12:08:00,60.4,14.1,29.50,NW,322,6.9,9.6,16,0.00,,---,0.00,VWS V14.01,2013-03-09 20:08:00,
2013-03-09 12:13:00,61.2,14.6,29.50,North,351,8.7,13.4,16,0.00,,---,0.00,VWS V14.01,2013-03-09 20:13:00,
2013-03-09 12:18:00,61.7,15.1,29.47,NNW,342,11.6,12.1,16,0.00,,---,0.00,VWS V14.01,2013-03-09 20:18:00,
2013-03-09 12:23:00,61.0,14.5,29.47,North,1,10.1,14.3,16,0.00,,---,0.00,VWS V14.01,2013-03-09 20:23:00,
2013-03-09 12:28:00,61.3,14.8,29.47,North,9,11.0,13.9,16,0.00,,---,0.00,VWS V14.01,2013-03-09 20:28:00,
2013-03-09 12:33:00,61.5,14.9,29.47,NNE,18,10.1,14.3,16,0.00,,---,0.00,VWS V14.01,2013-03-09 20:33:00,
2013-03-09 12:38:00,62.2,15.5,29.47,NW,324,11.0,15.2,16,0.00,,---,0.00,VWS V14.01,2013-03-09 20:38:00,
2013-03-09 12:43:00,62.2,15.5,29.47,NNE,17,11.0,11.0,16,0.00,,---,0.00,VWS V14.01,2013-03-09 20:43:00,
2013-03-09 12:48:00,62.8,15.9,29.47,NNE,20,6.9,10.1,16,0.00,,---,0.00,VWS V14.01,2013-03-09 20:48:00,
2013-03-09 12:53:00,63.3,16.4,29.47,North,351,9.6,11.6,16,0.00,,---,0.00,VWS V14.01,2013-03-09 20:53:00,
2013-03-09 12:58:00,63.0,16.1,29.47,NW,320,8.3,11.6,16,0.00,,---,0.00,VWS V14.01,2013-03-09 20:58:00,
2013-03-09 13:03:00,63.5,16.5,29.47,North,351,13.9,14.3,16,0.00,,---,0.00,VWS V14.01,2013-03-09 21:03:00,
2013-03-09 13:08:00,62.8,15.9,29.47,North,351,11.2,16.8,16,0.00,,---,0.00,VWS V14.01,2013-03-09 21:08:00,
2013-03-09 13:13:00,63.5,15.1,29.47,NNW,338,10.1,12.5,15,0.00,,---,0.00,VWS V14.01,2013-03-09 21:13:00,
2013-03-09 13:18:00,63.5,15.1,29.47,North,3,7.8,14.3,15,0.00,,---,0.00,VWS V14.01,2013-03-09 21:18:00,
2013-03-09 13:23:00,63.7,15.2,29.47,NNW,334,9.2,11.6,15,0.00,,---,0.00,VWS V14.01,2013-03-09 21:23:00,
2013-03-09 13:28:00,64.0,15.5,29.47,North,351,11.6,12.1,15,0.00,,---,0.00,VWS V14.01,2013-03-09 21:28:00,
2013-03-09 13:33:00,64.0,15.5,29.47,NNW,339,9.2,14.8,15,0.00,,---,0.00,VWS V14.01,2013-03-09 21:33:00,
2013-03-09 13:38:00,64.6,15.9,29.47,NNW,335,11.0,11.6,15,0.00,,---,0.00,VWS V14.01,2013-03-09 21:38:00,
2013-03-09 13:43:00,64.6,15.9,29.47,NNE,21,13.9,14.8,15,0.00,,---,0.00,VWS V14.01,2013-03-09 21:43:00,
2013-03-09 13:48:00,64.9,16.2,29.47,North,7,8.3,12.1,15,0.00,,---,0.00,VWS V14.01,2013-03-09 21:48:00,
2013-03-09 13:53:00,64.9,16.2,29.47,North,356,15.2,18.6,15,0.00,,---,0.00,VWS V14.01,2013-03-09 21:53:00,
2013-03-09 13:58:00,65.1,16.4,29.47,North,356,11.2,15.4,15,0.00,,---,0.00,VWS V14.01,2013-03-09 21:58:00,
2013-03-09 14:03:00,66.6,17.5,29.47,NNW,335,12.1,12.1,15,0.00,,---,0.00,VWS V14.01,2013-03-09 22:03:00,
2013-03-09 14:08:00,66.2,17.2,29.47,North,7,7.8,13.0,15,0.00,,---,0.00,VWS V14.01,2013-03-09 22:08:00,
2013-03-09 14:13:00,67.6,18.4,29.47,North,1,10.1,11.6,15,0.00,,---,0.00,VWS V14.01,2013-03-09 22:13:00,
2013-03-09 14:18:00,66.4,17.4,29.47,North,3,10.1,13.9,15,0.00,,---,0.00,VWS V14.01,2013-03-09 22:18:00,
2013-03-09 14:23:00,68.4,19.0,29.47,NNW,329,8.7,11.0,15,0.00,,---,0.00,VWS V14.01,2013-03-09 22:23:00,
2013-03-09 14:28:00,68.9,19.4,29.47,NNW,340,11.0,16.8,15,0.00,,---,0.00,VWS V14.01,2013-03-09 22:28:00,
2013-03-09 14:33:00,66.7,17.6,29.47,East,93,13.4,14.3,15,0.00,,---,0.00,VWS V14.01,2013-03-09 22:33:00,
2013-03-09 14:38:00,66.7,17.6,29.47,North,9,13.0,17.2,15,0.00,,---,0.00,VWS V14.01,2013-03-09 22:38:00,
2013-03-09 14:43:00,67.5,18.2,29.47,North,351,11.0,13.9,15,0.00,,---,0.00,VWS V14.01,2013-03-09 22:43:00,
2013-03-09 14:48:00,67.1,17.9,29.47,North,8,9.6,17.2,15,0.00,,---,0.00,VWS V14.01,2013-03-09 22:48:00,
2013-03-09 14:53:00,66.2,17.2,29.47,NNE,12,11.0,18.1,15,0.00,,---,0.00,VWS V14.01,2013-03-09 22:53:00,
2013-03-09 14:58:00,66.4,17.4,29.47,NNW,342,15.2,18.6,15,0.00,,---,0.00,VWS V14.01,2013-03-09 22:58:00,
2013-03-09 15:03:00,65.8,16.9,29.47,North,356,13.9,20.6,15,0.00,,---,0.00,VWS V14.01,2013-03-09 23:03:00,
2013-03-09 15:08:00,66.4,17.4,29.47,North,11,15.2,16.3,15,0.00,,---,0.00,VWS V14.01,2013-03-09 23:08:00,
2013-03-09 15:13:00,66.4,17.4,29.47,North,351,6.3,11.6,15,0.00,,---,0.00,VWS V14.01,2013-03-09 23:13:00,
2013-03-09 15:18:00,66.4,17.4,29.47,North,351,10.5,13.0,15,0.00,,---,0.00,VWS V14.01,2013-03-09 23:18:00,
2013-03-09 15:23:00,66.2,17.2,29.47,North,351,10.5,15.9,15,0.00,,---,0.00,VWS V14.01,2013-03-09 23:23:00,
2013-03-09 15:28:00,66.4,17.4,29.47,NNW,345,11.0,13.0,15,0.00,,---,0.00,VWS V14.01,2013-03-09 23:28:00,
2013-03-09 15:33:00,66.6,17.5,29.47,NNW,343,7.4,13.4,15,0.00,,---,0.00,VWS V14.01,2013-03-09 23:33:00,
2013-03-09 15:38:00,66.4,17.4,29.47,SSW,208,16.3,21.0,15,0.00,,---,0.00,VWS V14.01,2013-03-09 23:38:00,
2013-03-09 15:43:00,66.4,17.4,29.47,North,351,14.8,19.9,15,0.00,,---,0.00,VWS V14.01,2013-03-09 23:43:00,
2013-03-09 15:48:00,66.4,17.4,29.47,NNW,337,12.1,14.8,15,0.00,,---,0.00,VWS V14.01,2013-03-09 23:48:00,
2013-03-09 15:53:00,66.7,17.6,29.47,NNE,16,11.2,13.4,15,0.00,,---,0.00,VWS V14.01,2013-03-09 23:53:00,
2013-03-09 15:58:00,66.6,17.5,29.47,North,0,11.0,11.2,15,0.00,,---,0.00,VWS V14.01,2013-03-09 23:58:00,
2013-03-09 16:03:00,66.7,17.6,29.44,NNW,342,9.2,11.2,15,0.00,,---,0.00,VWS V14.01,2013-03-10 00:03:00,
2013-03-09 16:08:00,66.4,17.4,29.44,North,0,8.3,12.5,15,0.00,,---,0.00,VWS V14.01,2013-03-10 00:08:00,
2013-03-09 16:13:00,66.4,17.4,29.44,North,9,8.7,14.3,15,0.00,,---,0.00,VWS V14.01,2013-03-10 00:13:00,
2013-03-09 16:18:00,66.0,17.1,29.44,North,6,12.5,17.2,15,0.00,,---,0.00,VWS V14.01,2013-03-10 00:18:00,
2013-03-09 16:23:00,66.0,17.1,29.44,NNW,340,10.1,13.9,15,0.00,,---,0.00,VWS V14.01,2013-03-10 00:23:00,
2013-03-09 16:28:00,66.0,17.1,29.44,NNW,338,11.6,13.4,15,0.00,,---,0.00,VWS V14.01,2013-03-10 00:28:00,
2013-03-09 16:33:00,66.0,17.1,29.44,North,351,13.4,13.4,15,0.00,,---,0.00,VWS V14.01,2013-03-10 00:33:00,
2013-03-09 16:38:00,65.8,16.9,29.44,NNW,337,9.6,11.2,15,0.00,,---,0.00,VWS V14.01,2013-03-10 00:38:00,
2013-03-09 16:43:00,65.7,16.8,29.44,NW,326,7.8,8.3,15,0.00,,---,0.00,VWS V14.01,2013-03-10 00:43:00,
2013-03-09 16:48:00,65.7,16.8,29.47,NNW,333,9.6,11.2,15,0.00,,---,0.00,VWS V14.01,2013-03-10 00:48:00,
2013-03-09 16:53:00,65.7,16.8,29.47,NNW,327,6.7,7.8,15,0.00,,---,0.00,VWS V14.01,2013-03-10 00:53:00,
2013-03-09 16:58:00,65.5,16.6,29.47,NW,317,6.9,10.1,15,0.00,,---,0.00,VWS V14.01,2013-03-10 00:58:00,
2013-03-09 17:03:00,65.1,16.4,29.47,NNW,329,6.9,7.8,15,0.00,,---,0.00,VWS V14.01,2013-03-10 01:03:00,
2013-03-09 17:08:00,64.6,15.9,29.47,West,259,4.9,6.7,15,0.00,,---,0.00,VWS V14.01,2013-03-10 01:08:00,
2013-03-09 17:13:00,64.0,15.5,29.47,WSW,249,6.7,7.4,15,0.00,,---,0.00,VWS V14.01,2013-03-10 01:13:00,
2013-03-09 17:18:00,63.3,16.4,29.47,WSW,258,5.8,6.9,16,0.00,,---,0.00,VWS V14.01,2013-03-10 01:18:00,
2013-03-09 17:24:00,62.6,15.8,29.47,NW,306,5.8,8.7,16,0.00,,---,0.00,VWS V14.01,2013-03-10 01:24:00,
2013-03-09 17:29:00,62.6,15.8,29.47,NNW,331,3.6,4.5,16,0.00,,---,0.00,VWS V14.01,2013-03-10 01:29:00,
2013-03-09 17:34:00,61.9,15.2,29.47,WSW,252,9.6,9.6,16,0.00,,---,0.00,VWS V14.01,2013-03-10 01:34:00,
2013-03-09 17:39:00,61.3,14.8,29.47,WSW,255,5.4,7.8,16,0.00,,---,0.00,VWS V14.01,2013-03-10 01:39:00,
2013-03-09 17:44:00,61.3,14.8,29.47,WSW,239,5.4,5.4,16,0.00,,---,0.00,VWS V14.01,2013-03-10 01:44:00,
2013-03-09 17:49:00,59.9,13.6,29.47,WSW,242,6.9,6.9,16,0.00,,---,0.00,VWS V14.01,2013-03-10 01:49:00,
2013-03-09 17:54:00,59.9,13.6,29.47,WSW,242,6.9,6.9,16,0.00,,---,0.00,VWS V14.01,2013-03-10 01:54:00,
2013-03-09 17:59:00,59.9,13.6,29.47,WSW,242,6.9,6.9,16,0.00,,---,0.00,VWS V14.01,2013-03-10 01:59:00,
2013-03-09 18:04:00,57.4,12.9,29.47,West,271,2.7,4.5,17,0.00,,---,0.00,VWS V14.01,2013-03-10 02:04:00,
2013-03-09 18:09:00,56.7,12.4,29.47,West,279,0.0,0.0,17,0.00,,---,0.00,VWS V14.01,2013-03-10 02:09:00,
2013-03-09 18:14:00,55.8,15.3,29.47,NW,311,0.0,0.0,20,0.00,,---,0.00,VWS V14.01,2013-03-10 02:14:00,
2013-03-09 18:19:00,55.0,14.7,29.47,NW,321,0.0,0.0,20,0.00,,---,0.00,VWS V14.01,2013-03-10 02:19:00,
2013-03-09 18:24:00,54.9,14.6,29.47,NW,322,0.0,0.0,20,0.00,,---,0.00,VWS V14.01,2013-03-10 02:24:00,
2013-03-09 18:29:00,54.1,14.0,29.47,NW,321,0.0,0.0,20,0.00,,---,0.00,VWS V14.01,2013-03-10 02:29:00,
2013-03-09 18:34:00,53.8,16.9,29.50,NE,55,3.6,4.0,23,0.00,,---,0.00,VWS V14.01,2013-03-10 02:34:00,
2013-03-09 18:39:00,54.0,17.0,29.50,SE,124,4.0,4.0,23,0.00,,---,0.00,VWS V14.01,2013-03-10 02:39:00,
2013-03-09 18:44:00,54.3,17.3,29.50,SSE,151,3.1,4.0,23,0.00,,---,0.00,VWS V14.01,2013-03-10 02:44:00,
2013-03-09 18:49:00,52.9,16.1,29.50,East,99,4.0,4.5,23,0.00,,---,0.00,VWS V14.01,2013-03-10 02:49:00,
2013-03-09 18:54:00,51.8,18.0,29.50,ESE,115,4.0,4.9,26,0.00,,---,0.00,VWS V14.01,2013-03-10 02:54:00,
2013-03-09 19:00:00,51.3,17.6,29.50,SE,130,4.5,5.4,26,0.00,,---,0.00,VWS V14.01,2013-03-10 03:00:00,
2013-03-09 19:05:00,51.4,18.6,29.50,SE,125,4.0,5.4,27,0.00,,---,0.00,VWS V14.01,2013-03-10 03:05:00,
2013-03-09 19:10:00,51.3,18.4,29.50,ESE,119,3.6,4.0,27,0.00,,---,0.00,VWS V14.01,2013-03-10 03:10:00,
2013-03-09 19:15:00,49.6,17.0,29.50,ESE,103,2.7,4.5,27,0.00,,---,0.00,VWS V14.01,2013-03-10 03:15:00,
2013-03-09 19:20:00,49.6,17.9,29.50,ESE,105,3.1,4.0,28,0.00,,---,0.00,VWS V14.01,2013-03-10 03:20:00,
2013-03-09 19:25:00,49.5,18.5,29.50,SE,124,4.9,6.3,29,0.00,,---,0.00,VWS V14.01,2013-03-10 03:25:00,
2013-03-09 19:30:00,50.2,19.2,29.50,ESE,107,4.0,4.5,29,0.00,,---,0.00,VWS V14.01,2013-03-10 03:30:00,
2013-03-09 19:36:00,50.0,18.2,29.50,ESE,115,4.9,4.9,28,0.00,,---,0.00,VWS V14.01,2013-03-10 03:36:00,
2013-03-09 19:41:00,49.6,18.7,29.50,ESE,111,3.6,4.5,29,0.00,,---,0.00,VWS V14.01,2013-03-10 03:41:00,
2013-03-09 19:46:00,48.7,17.9,29.50,ESE,119,3.6,3.6,29,0.00,,---,0.00,VWS V14.01,2013-03-10 03:46:00,
2013-03-09 19:51:00,48.0,18.1,29.50,East,89,0.0,0.0,30,0.00,,---,0.00,VWS V14.01,2013-03-10 03:51:00,
2013-03-09 19:57:00,45.9,16.2,29.50,East,89,0.0,0.0,30,0.00,,---,0.00,VWS V14.01,2013-03-10 03:57:00,
2013-03-09 20:02:00,46.0,21.9,29.50,East,89,0.0,0.0,38,0.00,,---,0.00,VWS V14.01,2013-03-10 04:02:00,
2013-03-09 20:07:00,45.1,21.1,29.50,East,89,0.0,0.0,38,0.00,,---,0.00,VWS V14.01,2013-03-10 04:07:00,
2013-03-09 20:12:00,44.6,20.6,29.50,East,83,0.0,0.0,38,0.00,,---,0.00,VWS V14.01,2013-03-10 04:12:00,
2013-03-09 20:17:00,43.7,19.8,29.50,ENE,63,0.0,0.0,38,0.00,,---,0.00,VWS V14.01,2013-03-10 04:17:00,
2013-03-09 20:22:00,43.2,20.5,29.50,North,4,2.7,3.6,40,0.00,,---,0.00,VWS V14.01,2013-03-10 04:22:00,
2013-03-09 20:27:00,43.0,20.9,29.50,North,4,0.0,0.0,41,0.00,,---,0.00,VWS V14.01,2013-03-10 04:27:00,
2013-03-09 20:32:00,43.3,22.9,29.53,North,4,0.0,0.0,44,0.00,,---,0.00,VWS V14.01,2013-03-10 04:32:00,
2013-03-09 20:37:00,44.8,25.8,29.53,North,4,2.7,2.7,47,0.00,,---,0.00,VWS V14.01,2013-03-10 04:37:00,
2013-03-09 20:43:00,44.1,22.5,29.53,WNW,292,0.0,4.0,42,0.00,,---,0.00,VWS V14.01,2013-03-10 04:43:00,
2013-03-09 20:48:00,42.8,20.2,29.53,WNW,292,3.1,3.1,40,0.00,,---,0.00,VWS V14.01,2013-03-10 04:48:00,
2013-03-09 20:53:00,41.7,19.8,29.53,WNW,292,0.0,0.0,41,0.00,,---,0.00,VWS V14.01,2013-03-10 04:53:00,
2013-03-09 20:58:00,42.4,24.6,29.53,WNW,292,0.0,0.0,49,0.00,,---,0.00,VWS V14.01,2013-03-10 04:58:00,
2013-03-09 21:00:00,43.5,26.1,29.53,WNW,292,0.0,0.0,50,0.00,,---,0.00,VWS V14.01,2013-03-10 05:00:00,
2013-03-09 21:02:00,44.4,26.5,29.53,WNW,292,4.0,4.0,49,0.00,,---,0.00,VWS V14.01,2013-03-10 05:02:00,
2013-03-09 21:07:00,45.1,24.5,29.53,SE,138,5.8,5.8,44,0.00,,---,0.00,VWS V14.01,2013-03-10 05:07:00,
2013-03-09 21:12:00,45.5,22.6,29.53,SE,140,4.9,4.9,40,0.00,,---,0.00,VWS V14.01,2013-03-10 05:12:00,
2013-03-09 21:15:00,45.9,22.3,29.53,SE,140,4.5,4.5,39,0.00,,---,0.00,VWS V14.01,2013-03-10 05:15:00,
2013-03-09 21:20:00,46.6,21.7,29.53,SE,138,3.6,3.6,37,0.00,,---,0.00,VWS V14.01,2013-03-10 05:20:00,
2013-03-09 21:25:00,46.4,21.6,29.53,SE,138,3.1,3.6,37,0.00,,---,0.00,VWS V14.01,2013-03-10 05:25:00,
2013-03-09 21:30:00,46.0,21.2,29.53,SE,138,4.9,4.9,37,0.00,,---,0.00,VWS V14.01,2013-03-10 05:30:00,
2013-03-09 21:35:00,46.2,20.1,29.53,East,93,4.9,4.9,35,0.00,,---,0.00,VWS V14.01,2013-03-10 05:35:00,
2013-03-09 21:40:00,45.3,20.6,29.53,East,96,0.0,3.6,37,0.00,,---,0.00,VWS V14.01,2013-03-10 05:40:00,
2013-03-09 21:46:00,45.9,21.7,29.53,ESE,104,4.0,4.0,38,0.00,,---,0.00,VWS V14.01,2013-03-10 05:46:00,
2013-03-09 21:51:00,44.2,19.0,29.53,NE,37,0.0,0.0,36,0.00,,---,0.00,VWS V14.01,2013-03-10 05:51:00,
2013-03-09 21:56:00,43.2,19.9,29.53,NE,37,0.0,0.0,39,0.00,,---,0.00,VWS V14.01,2013-03-10 05:56:00,
2013-03-09 22:01:00,43.0,20.3,29.53,NE,36,0.0,0.0,40,0.00,,---,0.00,VWS V14.01,2013-03-10 06:01:00,
2013-03-09 22:06:00,44.2,22.0,29.53,ESE,105,4.0,4.0,41,0.00,,---,0.00,VWS V14.01,2013-03-10 06:06:00,
2013-03-09 22:11:00,44.4,21.6,29.53,ESE,110,2.7,3.1,40,0.00,,---,0.00,VWS V14.01,2013-03-10 06:11:00,
2013-03-09 22:16:00,43.7,21.0,29.53,WNW,287,7.8,7.8,40,0.00,,---,0.00,VWS V14.01,2013-03-10 06:16:00,
2013-03-09 22:21:00,41.7,18.6,29.56,NW,313,4.9,6.3,39,0.00,,---,0.00,VWS V14.01,2013-03-10 06:21:00,
2013-03-09 22:26:00,41.2,18.7,29.56,North,351,2.7,3.1,40,0.00,,---,0.00,VWS V14.01,2013-03-10 06:26:00,
2013-03-09 22:31:00,40.5,19.2,29.56,North,351,0.0,0.0,42,0.00,,---,0.00,VWS V14.01,2013-03-10 06:31:00,
2013-03-09 22:36:00,40.5,19.7,29.56,North,351,0.0,0.0,43,0.00,,---,0.00,VWS V14.01,2013-03-10 06:36:00,
2013-03-09 22:41:00,40.8,22.2,29.56,North,351,0.0,0.0,47,0.00,,---,0.00,VWS V14.01,2013-03-10 06:41:00,
2013-03-09 22:46:00,42.3,24.5,29.56,NNW,330,0.0,0.0,49,0.00,,---,0.00,VWS V14.01,2013-03-10 06:46:00,
2013-03-09 22:51:00,42.6,23.8,29.56,WNW,295,0.0,0.0,47,0.00,,---,0.00,VWS V14.01,2013-03-10 06:51:00,
2013-03-09 22:56:00,42.8,21.9,29.56,WNW,294,3.6,4.5,43,0.00,,---,0.00,VWS V14.01,2013-03-10 06:56:00,
2013-03-09 23:01:00,43.2,23.3,29.56,SE,139,3.6,4.0,45,0.00,,---,0.00,VWS V14.01,2013-03-10 07:01:00,
2013-03-09 23:06:00,43.5,22.0,29.56,SSE,148,5.8,5.8,42,0.00,,---,0.00,VWS V14.01,2013-03-10 07:06:00,
2013-03-09 23:11:00,43.3,21.2,29.56,SE,145,2.7,4.5,41,0.00,,---,0.00,VWS V14.01,2013-03-10 07:11:00,
2013-03-09 23:16:00,43.3,21.2,29.56,SE,145,0.0,2.7,41,0.00,,---,0.00,VWS V14.01,2013-03-10 07:16:00,
2013-03-09 23:21:00,42.1,18.9,29.56,SE,145,3.1,3.1,39,0.00,,---,0.00,VWS V14.01,2013-03-10 07:21:00,
2013-03-09 23:26:00,41.5,20.7,29.56,SE,144,0.0,3.1,43,0.00,,---,0.00,VWS V14.01,2013-03-10 07:26:00,
2013-03-09 23:31:00,41.0,19.7,29.56,SE,144,0.0,0.0,42,0.00,,---,0.00,VWS V14.01,2013-03-10 07:31:00,
2013-03-09 23:36:00,40.6,19.4,29.56,SE,144,0.0,0.0,42,0.00,,---,0.00,VWS V14.01,2013-03-10 07:36:00,
2013-03-09 23:41:00,40.3,19.0,29.56,SE,144,0.0,0.0,42,0.00,,---,0.00,VWS V14.01,2013-03-10 07:41:00,
2013-03-09 23:46:00,41.0,22.8,29.56,SE,144,0.0,0.0,48,0.00,,---,0.00,VWS V14.01,2013-03-10 07:46:00,
2013-03-09 23:51:00,40.3,21.2,29.53,SE,144,0.0,0.0,46,0.00,,---,0.00,VWS V14.01,2013-03-10 07:51:00,
2013-03-09 23:56:00,39.9,21.3,29.53,SE,144,0.0,0.0,47,0.00,,---,0.00,VWS V14.01,2013-03-10 07:56:00,